createdAt,value
2022-12-04T00:02:16.090Z,3.30
2022-12-04T00:04:43.663Z,3.30
2022-12-04T00:07:12.228Z,3.20
2022-12-04T00:09:39.763Z,3.30
2022-12-04T00:12:08.067Z,3.20
2022-12-04T00:14:49.031Z,3.20
2022-12-04T00:17:03.175Z,3.20
2022-12-04T00:19:30.710Z,3.20
2022-12-04T00:21:59.071Z,3.20
2022-12-04T00:24:26.595Z,3.20
2022-12-04T00:26:54.130Z,3.20
2022-12-04T00:29:21.694Z,3.20
2022-12-04T00:31:49.333Z,3.20
2022-12-04T00:34:17.534Z,3.20
2022-12-04T00:36:45.088Z,3.20
2022-12-04T00:39:12.612Z,3.20
2022-12-04T00:41:40.905Z,3.20
2022-12-04T00:44:09.247Z,3.20
2022-12-04T00:46:36.771Z,3.20
2022-12-04T00:49:04.326Z,3.20
2022-12-04T00:51:31.983Z,3.20
2022-12-04T00:53:59.506Z,3.20
2022-12-04T00:56:27.818Z,3.20
2022-12-04T00:58:55.410Z,3.20
2022-12-04T01:01:23.006Z,3.20
2022-12-04T01:03:50.450Z,3.20
2022-12-04T01:06:26.432Z,3.20
2022-12-04T01:08:53.967Z,3.20
2022-12-04T01:11:21.497Z,3.20
2022-12-04T01:13:49.935Z,3.20
2022-12-04T01:16:20.690Z,3.20
2022-12-04T01:18:48.152Z,3.20
2022-12-04T01:21:15.720Z,3.20
2022-12-04T01:23:43.252Z,3.20
2022-12-04T01:26:10.779Z,3.20
2022-12-04T01:28:40.240Z,3.10
2022-12-04T01:31:11.028Z,3.10
2022-12-04T01:33:38.481Z,3.10
2022-12-04T01:36:07.128Z,3.00
2022-12-04T01:38:34.654Z,3.00
2022-12-04T01:41:02.189Z,3.00
2022-12-04T01:43:30.541Z,3.00
2022-12-04T01:45:58.099Z,3.00
2022-12-04T01:48:28.080Z,3.00
2022-12-04T01:50:55.665Z,3.00
2022-12-04T01:53:23.211Z,3.20
2022-12-04T01:55:50.744Z,3.20
2022-12-04T01:58:18.604Z,3.40
2022-12-04T02:00:50.977Z,3.40
2022-12-04T02:03:14.485Z,3.30
2022-12-04T02:05:43.019Z,3.30
2022-12-04T02:08:10.591Z,3.30
2022-12-04T02:10:51.174Z,3.20
2022-12-04T02:13:21.576Z,3.20
2022-12-04T02:15:55.154Z,3.10
2022-12-04T02:18:35.429Z,3.00
2022-12-04T02:21:03.301Z,3.00
2022-12-04T02:23:52.083Z,3.00
2022-12-04T02:26:23.545Z,2.90
2022-12-04T02:28:56.702Z,3.00
2022-12-04T02:31:24.287Z,2.90
2022-12-04T02:33:55.559Z,3.00
2022-12-04T02:36:23.087Z,3.00
2022-12-04T02:38:59.267Z,3.00
2022-12-04T02:41:26.861Z,3.00
2022-12-04T02:43:54.397Z,3.30
2022-12-04T02:46:30.850Z,3.50
2022-12-04T02:48:58.336Z,3.50
2022-12-04T02:51:26.641Z,3.60
2022-12-04T02:53:54.175Z,3.50
2022-12-04T02:56:25.243Z,3.40
2022-12-04T02:58:52.789Z,3.40
2022-12-04T03:01:20.369Z,3.40
2022-12-04T03:03:51.915Z,3.20
2022-12-04T03:06:19.449Z,3.20
2022-12-04T03:08:47.761Z,3.10
2022-12-04T03:11:15.731Z,3.10
2022-12-04T03:13:48.888Z,3.10
2022-12-04T03:16:17.239Z,3.00
2022-12-04T03:18:47.815Z,3.00
2022-12-04T03:21:15.340Z,3.00
2022-12-04T03:23:49.396Z,3.00
2022-12-04T03:26:16.957Z,3.00
2022-12-04T03:29:08.901Z,3.00
2022-12-04T03:31:39.400Z,3.00
2022-12-04T03:34:06.934Z,3.00
2022-12-04T03:36:35.227Z,3.00
2022-12-04T03:39:08.986Z,3.00
2022-12-04T03:41:55.099Z,2.90
2022-12-04T03:44:28.570Z,2.90
2022-12-04T03:47:05.039Z,2.90
2022-12-04T03:49:44.436Z,2.90
2022-12-04T03:52:17.505Z,2.80
2022-12-04T03:54:48.593Z,3.00
2022-12-04T03:57:18.955Z,3.00
2022-12-04T03:59:55.279Z,3.00
2022-12-04T04:02:16.525Z,3.00
2022-12-04T04:04:44.062Z,2.90
2022-12-04T04:07:11.575Z,3.10
2022-12-04T04:09:39.098Z,3.10
2022-12-04T04:12:09.972Z,3.10
2022-12-04T04:14:58.537Z,3.00
2022-12-04T04:17:44.092Z,3.00
2022-12-04T04:20:33.534Z,2.90
2022-12-04T04:23:19.512Z,2.90
2022-12-04T04:25:47.035Z,2.80
2022-12-04T04:28:29.290Z,2.80
2022-12-04T04:30:56.863Z,2.80
2022-12-04T04:33:24.330Z,2.80
2022-12-04T04:35:55.890Z,2.90
2022-12-04T04:38:26.084Z,2.90
2022-12-04T04:41:02.913Z,2.80
2022-12-04T04:43:33.339Z,2.70
2022-12-04T04:46:06.661Z,2.70
2022-12-04T04:48:40.071Z,2.60
2022-12-04T04:51:07.605Z,2.60
2022-12-04T04:53:37.601Z,2.60
2022-12-04T04:56:05.175Z,2.50
2022-12-04T04:58:32.713Z,2.50
2022-12-04T05:01:02.932Z,2.50
2022-12-04T05:03:30.488Z,2.50
2022-12-04T05:05:58.011Z,2.40
2022-12-04T05:08:25.559Z,2.50
2022-12-04T05:10:53.139Z,2.60
2022-12-04T05:13:20.683Z,2.70
2022-12-04T05:16:03.669Z,2.70
2022-12-04T05:18:31.143Z,2.70
2022-12-04T05:20:58.671Z,2.60
2022-12-04T05:23:26.289Z,2.60
2022-12-04T05:25:53.779Z,2.50
2022-12-04T05:28:21.302Z,2.50
2022-12-04T05:30:49.270Z,2.50
2022-12-04T05:33:16.770Z,2.50
2022-12-04T05:35:44.291Z,2.50
2022-12-04T05:38:12.625Z,2.50
2022-12-04T05:40:40.148Z,2.50
2022-12-04T05:43:07.673Z,2.50
2022-12-04T05:45:35.237Z,2.60
2022-12-04T05:48:02.764Z,2.60
2022-12-04T05:50:30.298Z,2.70
2022-12-04T05:52:58.057Z,2.70
2022-12-04T05:55:25.544Z,2.70
2022-12-04T05:57:53.068Z,2.70
2022-12-04T06:00:21.036Z,2.70
2022-12-04T06:02:48.615Z,2.70
2022-12-04T06:05:16.086Z,2.70
2022-12-04T06:07:43.677Z,2.70
2022-12-04T06:10:11.166Z,2.70
2022-12-04T06:12:38.691Z,2.60
2022-12-04T06:15:06.398Z,2.60
2022-12-04T06:17:33.938Z,2.60
2022-12-04T06:20:06.504Z,3.10
2022-12-04T06:22:29.813Z,3.10
2022-12-04T06:24:57.349Z,3.30
2022-12-04T06:27:27.682Z,3.30
2022-12-04T06:29:52.507Z,3.20
2022-12-04T06:32:22.080Z,3.00
2022-12-04T06:34:47.570Z,3.00
2022-12-04T06:37:15.912Z,3.10
2022-12-04T06:39:43.442Z,3.00
2022-12-04T06:42:10.958Z,3.00
2022-12-04T06:44:39.291Z,2.70
2022-12-04T06:47:06.854Z,2.70
2022-12-04T06:49:34.363Z,2.60
2022-12-04T06:52:02.702Z,2.50
2022-12-04T06:54:30.236Z,2.40
2022-12-04T06:56:57.762Z,2.40
2022-12-04T06:59:25.640Z,2.50
2022-12-04T07:01:53.201Z,2.50
2022-12-04T07:04:20.806Z,2.50
2022-12-04T07:06:48.265Z,2.60
2022-12-04T07:09:15.794Z,2.60
2022-12-04T07:11:43.306Z,2.50
2022-12-04T07:14:12.635Z,2.30
2022-12-04T07:16:41.450Z,2.30
2022-12-04T07:19:07.721Z,2.30
2022-12-04T07:21:36.044Z,2.20
2022-12-04T07:24:03.580Z,2.20
2022-12-04T07:26:31.114Z,2.10
2022-12-04T07:28:59.751Z,2.10
2022-12-04T07:31:27.255Z,2.10
2022-12-04T07:33:54.772Z,2.10
2022-12-04T07:36:22.391Z,2.20
2022-12-04T07:38:49.915Z,2.10
2022-12-04T07:41:17.439Z,2.10
2022-12-04T07:43:45.017Z,2.10
2022-12-04T07:46:12.600Z,2.40
2022-12-04T07:48:40.091Z,2.40
2022-12-04T07:51:08.418Z,2.40
2022-12-04T07:53:35.953Z,2.30
2022-12-04T07:56:03.470Z,2.30
2022-12-04T07:58:31.811Z,2.30
2022-12-04T08:01:08.065Z,2.30
2022-12-04T08:03:35.458Z,2.30
2022-12-04T08:06:04.064Z,2.20
2022-12-04T08:08:31.590Z,2.20
2022-12-04T08:10:59.122Z,2.20
2022-12-04T08:13:26.974Z,2.20
2022-12-04T08:15:54.489Z,2.20
2022-12-04T08:18:22.802Z,2.20
2022-12-04T08:20:50.405Z,2.20
2022-12-04T08:23:17.929Z,2.20
2022-12-04T08:25:45.455Z,2.20
2022-12-04T08:28:13.798Z,2.40
2022-12-04T08:30:41.375Z,2.40
2022-12-04T08:33:08.867Z,2.40
2022-12-04T08:35:36.445Z,2.50
2022-12-04T08:38:03.974Z,2.80
2022-12-04T08:40:31.491Z,2.70
2022-12-04T08:42:59.084Z,2.60
2022-12-04T08:45:27.368Z,2.60
2022-12-04T08:47:54.893Z,2.70
2022-12-04T08:50:22.466Z,2.60
2022-12-04T08:52:50.759Z,2.50
2022-12-04T08:55:18.285Z,2.50
2022-12-04T08:57:46.104Z,2.50
2022-12-04T09:00:13.629Z,2.40
2022-12-04T09:02:41.932Z,2.40
2022-12-04T09:05:09.497Z,2.40
2022-12-04T09:07:37.092Z,2.40
2022-12-04T09:10:05.465Z,2.40
2022-12-04T09:12:33.035Z,2.30
2022-12-04T09:15:00.590Z,2.40
2022-12-04T09:17:28.125Z,2.60
2022-12-04T09:20:00.731Z,2.80
2022-12-04T09:22:23.234Z,2.90
2022-12-04T09:24:50.758Z,2.80
2022-12-04T09:27:18.668Z,2.80
2022-12-04T09:29:46.212Z,2.80
2022-12-04T09:32:13.737Z,2.70
2022-12-04T09:34:44.362Z,2.70
2022-12-04T09:37:10.529Z,2.70
2022-12-04T09:39:38.071Z,2.60
2022-12-04T09:42:30.352Z,2.60
2022-12-04T09:45:06.395Z,2.60
2022-12-04T09:47:42.171Z,2.60
2022-12-04T09:50:21.578Z,2.60
2022-12-04T09:53:04.237Z,2.60
2022-12-04T09:55:40.909Z,2.60
2022-12-04T09:58:08.465Z,2.50
2022-12-04T10:00:36.029Z,2.60
2022-12-04T10:03:06.879Z,2.60
2022-12-04T10:05:42.826Z,2.60
2022-12-04T10:08:10.385Z,2.60
2022-12-04T10:10:40.995Z,2.60
2022-12-04T10:13:36.564Z,2.80
2022-12-04T10:16:12.618Z,2.90
2022-12-04T10:18:42.718Z,2.90
2022-12-04T10:21:16.850Z,3.10
2022-12-04T10:23:59.360Z,3.10
2022-12-04T10:26:26.905Z,3.10
2022-12-04T10:28:55.747Z,3.00
2022-12-04T10:31:22.901Z,3.00
2022-12-04T10:33:54.206Z,2.90
2022-12-04T10:36:21.731Z,2.90
2022-12-04T10:38:51.726Z,2.90
2022-12-04T10:41:24.992Z,2.90
2022-12-04T10:43:52.527Z,2.90
2022-12-04T10:46:26.058Z,2.80
2022-12-04T10:48:53.543Z,2.80
2022-12-04T10:51:21.071Z,2.90
2022-12-04T10:53:51.356Z,2.90
2022-12-04T10:56:19.655Z,2.90
2022-12-04T10:58:58.767Z,2.80
2022-12-04T11:01:27.162Z,2.80
2022-12-04T11:04:00.928Z,2.80
2022-12-04T11:06:28.513Z,2.90
2022-12-04T11:08:56.813Z,2.90
2022-12-04T11:11:24.407Z,2.90
2022-12-04T11:13:52.847Z,2.90
2022-12-04T11:16:23.372Z,2.90
2022-12-04T11:18:50.843Z,2.90
2022-12-04T11:21:18.404Z,2.80
2022-12-04T11:23:45.949Z,2.90
2022-12-04T11:26:13.484Z,2.90
2022-12-04T11:28:42.862Z,2.80
2022-12-04T11:31:09.669Z,2.80
2022-12-04T11:33:49.982Z,2.80
2022-12-04T11:36:27.060Z,2.80
2022-12-04T11:38:55.399Z,2.80
2022-12-04T11:41:25.434Z,2.80
2022-12-04T11:43:56.711Z,2.80
2022-12-04T11:46:20.578Z,3.10
2022-12-04T11:48:48.078Z,3.30
2022-12-04T11:51:33.484Z,3.30
2022-12-04T11:54:03.804Z,3.20
2022-12-04T11:56:34.117Z,3.10
2022-12-04T11:59:13.682Z,3.10
2022-12-04T12:02:15.100Z,3.30
2022-12-04T12:04:42.614Z,3.50
2022-12-04T12:07:19.659Z,3.30
2022-12-04T12:09:57.339Z,3.30
2022-12-04T12:12:42.908Z,3.20
2022-12-04T12:15:19.472Z,3.20
2022-12-04T12:17:52.844Z,3.10
2022-12-04T12:20:42.346Z,3.10
2022-12-04T12:23:18.604Z,3.10
2022-12-04T12:25:57.936Z,3.00
2022-12-04T12:28:34.194Z,2.90
2022-12-04T12:31:20.445Z,2.90
2022-12-04T12:33:50.404Z,2.90
2022-12-04T12:36:17.939Z,2.80
2022-12-04T12:38:52.039Z,2.80
2022-12-04T12:41:22.262Z,2.80
2022-12-04T12:43:49.797Z,2.80
2022-12-04T12:46:23.181Z,2.80
2022-12-04T12:49:11.530Z,2.80
2022-12-04T12:51:48.182Z,2.80
2022-12-04T12:54:33.558Z,2.80
2022-12-04T12:57:01.427Z,2.80
2022-12-04T12:59:28.968Z,2.80
2022-12-04T13:02:09.352Z,2.80
2022-12-04T13:04:39.668Z,2.80
2022-12-04T13:07:20.416Z,2.90
2022-12-04T13:09:56.913Z,3.10
2022-12-04T13:12:24.180Z,3.20
2022-12-04T13:14:51.754Z,3.20
2022-12-04T13:17:19.279Z,3.20
2022-12-04T13:19:49.521Z,3.20
2022-12-04T13:22:38.392Z,3.40
2022-12-04T13:25:11.461Z,3.40
2022-12-04T13:27:50.929Z,3.40
2022-12-04T13:30:20.905Z,3.30
2022-12-04T13:32:48.439Z,3.30
2022-12-04T13:35:31.179Z,3.30
2022-12-04T13:38:01.318Z,3.30
2022-12-04T13:40:34.487Z,3.30
2022-12-04T13:43:17.904Z,3.20
2022-12-04T13:45:45.506Z,3.20
2022-12-04T13:48:13.742Z,3.30
2022-12-04T13:50:41.611Z,3.30
2022-12-04T13:53:09.147Z,3.30
2022-12-04T13:55:37.439Z,3.30
2022-12-04T13:58:11.066Z,3.30
2022-12-04T14:00:38.585Z,3.40
2022-12-04T14:03:06.889Z,3.60
2022-12-04T14:05:40.556Z,3.60
2022-12-04T14:08:08.898Z,3.80
2022-12-04T14:10:36.403Z,3.80
2022-12-04T14:13:12.794Z,3.70
2022-12-04T14:15:40.356Z,3.70
2022-12-04T14:18:13.580Z,3.60
2022-12-04T14:20:41.163Z,3.60
2022-12-04T14:23:18.573Z,3.80
2022-12-04T14:25:46.147Z,3.70
2022-12-04T14:28:13.682Z,3.80
2022-12-04T14:30:42.037Z,3.70
2022-12-04T14:33:18.164Z,3.70
2022-12-04T14:35:48.644Z,3.70
2022-12-04T14:38:19.545Z,3.50
2022-12-04T14:40:49.788Z,3.50
2022-12-04T14:43:17.323Z,3.50
2022-12-04T14:45:44.891Z,3.40
2022-12-04T14:48:18.260Z,3.40
2022-12-04T14:50:54.735Z,3.60
2022-12-04T14:53:44.159Z,3.50
2022-12-04T14:56:30.740Z,3.40
2022-12-04T14:58:58.310Z,3.40
2022-12-04T15:01:30.124Z,3.30
2022-12-04T15:03:56.780Z,3.30
2022-12-04T15:06:27.127Z,3.20
2022-12-04T15:09:15.466Z,3.20
2022-12-04T15:12:07.039Z,3.10
2022-12-04T15:14:49.311Z,3.10
2022-12-04T15:17:18.539Z,3.00
2022-12-04T15:19:46.106Z,3.00
2022-12-04T15:22:23.287Z,2.90
2022-12-04T15:24:50.812Z,2.90
2022-12-04T15:27:19.105Z,2.90
2022-12-04T15:29:46.669Z,2.90
2022-12-04T15:32:14.195Z,2.90
2022-12-04T15:34:44.653Z,2.90
2022-12-04T15:37:22.585Z,2.90
2022-12-04T15:39:52.482Z,2.90
2022-12-04T15:42:17.633Z,3.10
2022-12-04T15:45:02.954Z,3.10
2022-12-04T15:47:30.477Z,3.10
2022-12-04T15:50:16.171Z,3.10
2022-12-04T15:52:50.446Z,3.50
2022-12-04T15:55:17.995Z,3.50
2022-12-04T15:57:45.555Z,3.40
2022-12-04T16:00:22.300Z,3.60
2022-12-04T16:02:50.166Z,3.50
2022-12-04T16:05:20.604Z,3.40
2022-12-04T16:07:51.043Z,3.30
2022-12-04T16:10:31.360Z,3.10
2022-12-04T16:12:59.653Z,3.00
2022-12-04T16:15:27.178Z,3.00
2022-12-04T16:17:55.099Z,3.00
2022-12-04T16:20:22.631Z,2.90
2022-12-04T16:22:50.155Z,2.90
2022-12-04T16:25:17.721Z,2.90
2022-12-04T16:27:45.246Z,2.90
2022-12-04T16:30:12.818Z,3.10
2022-12-04T16:32:40.363Z,3.20
2022-12-04T16:35:08.036Z,3.10
2022-12-04T16:37:35.560Z,3.10
2022-12-04T16:40:03.125Z,3.10
2022-12-04T16:42:30.650Z,3.00
2022-12-04T16:44:59.153Z,2.90
2022-12-04T16:47:26.507Z,2.90
2022-12-04T16:49:54.044Z,3.10
2022-12-04T16:52:22.334Z,3.00
2022-12-04T16:54:49.910Z,3.00
2022-12-04T16:57:17.444Z,3.20
2022-12-04T16:59:45.757Z,3.20
2022-12-04T17:02:16.491Z,3.10
2022-12-04T17:04:43.996Z,3.10
2022-12-04T17:07:11.532Z,3.00
2022-12-04T17:09:39.124Z,3.00
2022-12-04T17:12:06.613Z,2.90
2022-12-04T17:14:34.135Z,2.90
2022-12-04T17:17:02.497Z,2.90
2022-12-04T17:19:30.041Z,2.90
2022-12-04T17:21:57.625Z,2.90
2022-12-04T17:24:25.199Z,2.90
2022-12-04T17:26:53.502Z,3.00
2022-12-04T17:29:21.031Z,3.00
2022-12-04T17:31:49.397Z,3.00
2022-12-04T17:34:16.874Z,3.00
2022-12-04T17:36:45.211Z,3.00
2022-12-04T17:39:12.752Z,3.00
2022-12-04T17:41:40.287Z,2.90
2022-12-04T17:44:07.821Z,2.90
2022-12-04T17:46:36.213Z,2.80
2022-12-04T17:49:06.990Z,2.80
2022-12-04T17:51:31.212Z,2.80
2022-12-04T17:53:59.822Z,2.80
2022-12-04T17:56:27.367Z,2.80
2022-12-04T17:58:55.659Z,2.80
2022-12-04T18:01:23.651Z,2.80
2022-12-04T18:03:53.751Z,2.80
2022-12-04T18:06:24.357Z,2.80
2022-12-04T18:08:52.700Z,2.80
2022-12-04T18:11:20.245Z,2.80
2022-12-04T18:13:47.760Z,2.80
2022-12-04T18:16:16.244Z,3.10
2022-12-04T18:18:43.636Z,3.00
2022-12-04T18:21:11.171Z,3.00
2022-12-04T18:23:38.735Z,3.20
2022-12-04T18:26:06.273Z,3.20
2022-12-04T18:28:34.563Z,3.10
2022-12-04T18:31:03.044Z,3.10
2022-12-04T18:33:30.578Z,3.10
2022-12-04T18:35:58.862Z,3.10
2022-12-04T18:38:27.204Z,3.10
2022-12-04T18:40:54.776Z,3.00
2022-12-04T18:43:22.306Z,3.00
2022-12-04T18:45:49.931Z,3.00
2022-12-04T18:48:17.429Z,3.00
2022-12-04T18:50:44.955Z,3.00
2022-12-04T18:53:12.530Z,3.00
2022-12-04T18:55:40.067Z,3.00
2022-12-04T18:58:07.588Z,3.00
2022-12-04T19:00:36.672Z,3.00
2022-12-04T19:03:04.174Z,2.90
2022-12-04T19:05:31.699Z,2.90
2022-12-04T19:07:59.690Z,2.90
2022-12-04T19:10:27.539Z,2.90
2022-12-04T19:12:55.447Z,2.90
2022-12-04T19:15:24.240Z,2.90
2022-12-04T19:17:51.943Z,2.90
2022-12-04T19:20:19.468Z,2.90
2022-12-04T19:22:47.042Z,2.90
2022-12-04T19:25:14.566Z,3.10
2022-12-04T19:27:42.092Z,3.20
2022-12-04T19:30:09.793Z,3.20
2022-12-04T19:32:37.319Z,3.10
2022-12-04T19:35:05.660Z,3.20
2022-12-04T19:37:35.846Z,3.10
2022-12-04T19:40:00.753Z,3.20
2022-12-04T19:42:28.275Z,3.40
2022-12-04T19:44:56.607Z,3.60
2022-12-04T19:47:24.171Z,3.60
2022-12-04T19:49:51.665Z,3.50
2022-12-04T19:52:20.604Z,3.40
2022-12-04T19:54:48.125Z,3.40
2022-12-04T19:57:16.425Z,3.30
2022-12-04T19:59:46.500Z,3.30
2022-12-04T20:02:11.532Z,3.30
2022-12-04T20:04:39.034Z,3.20
2022-12-04T20:07:06.595Z,3.20
2022-12-04T20:09:34.130Z,3.10
2022-12-04T20:12:01.655Z,3.10
2022-12-04T20:14:29.989Z,3.00
2022-12-04T20:16:57.598Z,3.00
2022-12-04T20:19:25.057Z,3.30
2022-12-04T20:21:57.656Z,3.50
2022-12-04T20:24:20.155Z,3.80
2022-12-04T20:26:48.457Z,3.60
2022-12-04T20:29:16.304Z,3.60
2022-12-04T20:31:44.591Z,3.40
2022-12-04T20:34:12.891Z,3.30
2022-12-04T20:36:40.467Z,3.30
2022-12-04T20:39:07.994Z,3.30
2022-12-04T20:41:35.518Z,3.20
2022-12-04T20:44:03.121Z,3.20
2022-12-04T20:46:33.367Z,3.20
2022-12-04T20:49:01.616Z,3.10
2022-12-04T20:51:30.323Z,3.10
2022-12-04T20:54:00.768Z,3.10
2022-12-04T20:56:28.291Z,3.10
2022-12-04T20:58:58.585Z,3.10
2022-12-04T21:01:27.005Z,3.10
2022-12-04T21:03:54.399Z,3.00
2022-12-04T21:06:29.607Z,3.10
2022-12-04T21:08:58.155Z,3.10
2022-12-04T21:11:25.688Z,3.30
2022-12-04T21:14:11.642Z,3.30
2022-12-04T21:16:39.172Z,3.30
2022-12-04T21:19:06.698Z,3.20
2022-12-04T21:21:35.050Z,3.10
2022-12-04T21:24:02.601Z,3.10
2022-12-04T21:26:30.138Z,3.10
2022-12-04T21:29:00.418Z,3.00
2022-12-04T21:31:28.812Z,2.90
2022-12-04T21:33:57.002Z,2.90
2022-12-04T21:36:24.567Z,2.90
2022-12-04T21:38:52.100Z,2.90
2022-12-04T21:41:38.421Z,2.80
2022-12-04T21:44:05.947Z,2.80
2022-12-04T21:46:34.357Z,2.80
2022-12-04T21:49:02.576Z,2.90
2022-12-04T21:51:55.695Z,2.90
2022-12-04T21:53:57.631Z,2.90
2022-12-04T21:56:25.203Z,2.90
2022-12-04T21:58:52.728Z,2.90
2022-12-04T22:01:20.275Z,2.90
2022-12-04T22:03:47.816Z,2.90
2022-12-04T22:06:15.351Z,2.90
2022-12-04T22:08:42.885Z,2.90
2022-12-04T22:11:11.593Z,2.90
2022-12-04T22:13:39.123Z,2.90
2022-12-04T22:16:07.481Z,2.90
2022-12-04T22:18:34.990Z,2.90
2022-12-04T22:21:05.513Z,2.90
2022-12-04T22:23:33.039Z,2.90
2022-12-04T22:26:10.382Z,2.90
2022-12-04T22:28:37.990Z,2.90
2022-12-04T22:31:05.534Z,2.90
2022-12-04T22:33:33.039Z,2.90
2022-12-04T22:36:09.308Z,2.90
2022-12-04T22:38:52.644Z,2.80
2022-12-04T22:41:05.192Z,3.10
2022-12-04T22:43:39.256Z,3.10
2022-12-04T22:46:00.241Z,3.10
2022-12-04T22:48:30.463Z,3.30
2022-12-04T22:51:00.961Z,3.30
2022-12-04T22:53:28.484Z,3.30
2022-12-04T22:55:56.068Z,3.20
2022-12-04T22:58:23.593Z,3.20
2022-12-04T23:00:51.119Z,3.10
2022-12-04T23:03:19.504Z,3.40
2022-12-04T23:05:46.985Z,3.30
2022-12-04T23:08:14.617Z,3.30
2022-12-04T23:10:42.105Z,3.50
2022-12-04T23:13:09.628Z,3.50
2022-12-04T23:15:40.850Z,3.40
2022-12-04T23:18:08.882Z,3.30
2022-12-04T23:20:36.426Z,3.30
2022-12-04T23:23:03.972Z,3.50
2022-12-04T23:25:31.535Z,3.50
2022-12-04T23:27:59.082Z,3.40
2022-12-04T23:30:30.526Z,3.30
2022-12-04T23:32:55.874Z,3.30
2022-12-04T23:35:23.397Z,3.30
2022-12-04T23:37:51.684Z,3.30
2022-12-04T23:40:19.254Z,3.20
2022-12-04T23:42:46.790Z,3.20
2022-12-04T23:45:15.072Z,3.20
2022-12-04T23:47:43.405Z,3.10
2022-12-04T23:50:10.988Z,3.10
2022-12-04T23:52:38.504Z,3.10
2022-12-04T23:55:06.442Z,3.10
2022-12-04T23:57:33.977Z,3.10
